Weather at Sandia Airpark Estates East Airport

Public forecast

Using degrees Fahrenheit for public forecast. Weather courtesy of forecast.io.

Closest aviation weather report (METAR) to Sandia Airpark Estates East Airport

Closest report is Moriarty Municipal Airport, 10.8 nm (20.0 km) SE.

(retrieved 0 seconds ago)

Closest aviation forecast (TAF) to Sandia Airpark Estates East Airport

Forecast is more than 6 hours old.

Closest forecast is Abraham Gonz├ílez International Airport, 208.1 nm (385.3 km) S.

2024/05/21 18:46 (retrieved 10 hours ago)

TAF MMCS 211739Z 2118/2218 25020KT P6SM SCT250 BECMG 2121/2122 25020G30KT FM220300 25006KT P6SM SKC BECMG 2217/2218 25015KT